Ride Results

Faraway Easter Carnival (18-04-2014)
Ride distance: 80.0 km

Outcomes - Faraway Easter Carnival (18-04-2014)
Division No. of Entries Retired / DNE Completed Withdrawn Ineligible V/O Percentage Completed
HW 8 - 6 - - 2 75.00%
MW 19 - 14 1 - 4 73.68%
LW 12 - 9 - - 3 75.00%
JN 8 - 5 1 - 2 62.50%
Totals 47 - 34 2 - 11 72.34%
Results - Faraway Easter Carnival (18-04-2014)
No. Rider Horse Place Time Leg Speeds Total
Km/Hr
H/R bpm
Heavyweight
109 Matthew Thompson Matta Mia Dayimi 1 7:02:00 13.6, 9.7 11.37 31, 43, 53 (Avg:48)
125 Craig Renner Edenfels Count Redmond 2 (BC) 7:08:00 12.1, 10.3 11.21 33, 46, 51 (Avg:48)
102 Doc Eckley Brookleigh Jeannie 3 7:53:00 12.1, 8.7 10.15 37, 45, 49 (Avg:47)
138 Shimpei Miyamoto Aloha Blue Opal 3 7:53:00 10.4, 9.8 10.15 29, 38, 50 (Avg:44)
122 Robyn Pembroke Mt Eerwah Nikita 5 8:20:00 11.9, 7.9 9.60 30, 41, 46 (Avg:43)
132 Dan Cook Longrun Conaar 6 8:28:00 10.8, 8.3 9.45 39, 53, 59 (Avg:56)
104 Douglas Dart Cameo Moon River Lame L2 0:00:00 11.5, 10.2 - 34, 48, 40 (Avg:44)
111 Paul Terry Abbeywood Romeo Heart Rate L2 0:00:00 10.6, 9.0 - 36, 45, 63 (Avg:54)
Middleweight
135 Simone Krahnen Ardai 1 (BC) 5:44:00 14.3, 13.5 13.95 37, 47, 51 (Avg:49)
141 Lisa Loranger Summervale Top Gear 2 7:01:00 12.1, 10.7 11.40 38, 42, 54 (Avg:48)
108 Linda Lochtenberg Matta Mia A Latte 3 7:02:00 13.6, 9.7 11.37 41, 44, 55 (Avg:49)
101 Sasha Laws-King Heathfield's Khalukey 4 7:05:00 11.0, 11.5 11.29 38, 40, 47 (Avg:43)
146 Rilene Heydenreich Aphrodite Malakia 5 7:34:00 13.2, 8.7 10.57 38, 45, 49 (Avg:47)
112 Lauren Trenkner Woodbourne Masindi 6 7:51:00 11.5, 9.1 10.19 37, 51, 57 (Avg:54)
139 Lizzy Cleland Gheerulla Aragon 7 7:53:00 10.4, 9.8 10.15 35, 41, 45 (Avg:43)
140 Emeline Lacour Gheerulla Leia 7 7:53:00 10.4, 9.8 10.15 30, 37, 40 (Avg:38)
145 Marion Lengronne Splendacrest Zafire 9 8:10:00 9.5, 10.0 9.80 23, 36, 45 (Avg:40)
148 Antonia Jardine Performance Park Maverick 10 8:15:00 10.4, 9.0 9.70 32, 37, 39 (Avg:38)
124 Danielle Cullen Agape SamuElla Australis 11 8:20:00 11.9, 7.9 9.60 30, 37, 39 (Avg:38)
123 Jacqui Wilson-Smith Mt Eerwah Romonous 11 8:20:00 11.9, 7.9 9.60 39, 42, 48 (Avg:45)
131 Kellie Hart Noname 13 8:28:00 10.8, 8.3 9.45 37, 40, 52 (Avg:46)
128 Sarah Curtis Maske 14 8:37:00 9.7, 8.8 9.28 47, 44, 52 (Avg:48)
103 Dave Dennis Stussy Heart Rate L2 0:00:00 10.1, 9.0 - 35, 41, 67 (Avg:54)
110 Jamie Green Picnic Park Silver Knight Heart Rate L2 0:00:00 13.7, 8.6 - 37, 48, 66 (Avg:57)
118 Shigeru Ogawa Faris Zyrtec Lame L2 0:00:00 12.1, 9.3 - 54, 42, 52 (Avg:47)
121 Jessyca Dakin Mt Eerwah Saxon Withdrawn L1 0:00:00 - - 40, 53 (Avg:53)
126 Timothy Sutcliffe Zanes Shadow Metabolics severe L1 0:00:00 12.1 - 30, 78 (Avg:78)
Lightweight
115 Sue Jones Hinterland Hellfire 1 5:40:00 14.8, 13.4 14.12 63, 48, 51 (Avg:49)
143 Janelle Taylor Calico Jarkamarn 1 (BC) 5:40:00 17.1, 11.9 14.12 36, 39, 37 (Avg:38)
113 Sarah Love Kalkadoon Ricochet 3 7:28:00 10.7, 10.6 10.71 33, 38, 48 (Avg:43)
119 Sachiko Murai Esau 4 7:34:00 12.0, 9.4 10.57 43, 44, 54 (Avg:49)
142 Deleni Walters Gheerulla Quartz 5 7:53:00 10.4, 9.8 10.15 35, 39, 45 (Avg:42)
117 Sarah Huddleston Soleil De Minuit 6 7:55:00 9.7, 10.4 10.11 42, 48, 51 (Avg:49)
106 Ute Jordan Anijoa Delilah 7 8:21:00 10.1, 9.0 9.58 42, 41, 50 (Avg:45)
137 Erin Krahnen Iskah 8 22:00:00 2.0, 17.0 3.64 28, 47, 54 (Avg:50)
120 Kaylea Maher Atticus 8 22:00:00 2.0, 16.2 3.64 41, 48, 55 (Avg:51)
105 Jess Ashman Hillbrae Alec Lame L2 0:00:00 14.1, 16.6 - 36, 46, 50 (Avg:48)
116 Fiona Fenech Samual Lame L1 0:00:00 9.7 - 38, 43 (Avg:43)
119a Sachiko Murai Bashan Silver Nadeer Lame P/R 0:00:00 - - 35
Junior
133 Connor Krahnen La Battista Shadow Fax 1 (BC) 5:44:00 14.2, 13.6 13.95 35, 44, 44 (Avg:44)
127 Ronan McKay Emac 2 7:33:00 12.0, 9.4 10.60 30, 42, 56 (Avg:49)
134 Colleen Krahnen Senorita te 3 7:41:00 10.9, 9.9 10.41 37, 46, 46 (Avg:46)
144 Tissi McKay Annordean Balin 4 8:10:00 9.5, 10.0 9.80 44, 48, 50 (Avg:49)
129 Finnlai Mansbridge Shannonwood Energex 5 8:13:00 9.6, 9.8 9.74 38, 46, 54 (Avg:50)
130 Jess Kennedy Shannonwood Y-Shine Heart Rate L2 0:00:00 9.6, 9.8 - 40, 43, 68 (Avg:55)
114 Brooke Marshall Meltharina Melina Heart Rate L2 0:00:00 10.7, 10.1 - 39, 49, 64 (Avg:56)
147 Bridget McHugh Splendacrest Grouse Withdrawn L1 0:00:00 - - 35, 42 (Avg:42)